Time;durP1;ratioP1;P1;durP2;ratioP2;P2;SDS_P1;SDS_P2;PMS_P1;PMS_P2;Temp;Humidity;BMP_temperature;BMP_pressure;BME280_temperature;BME280_humidity;BME280_pressure;Samples;Min_cycle;Max_cycle;Signal;HPM_P1;HPM_P2
2021/03/30 00:01:30;;;;;;;5.07;2.27;;;12.50;66.80;;;;;;6164581;28;20235;-76
2021/03/30 00:04:32;;;;;;;6.63;2.57;;;12.50;69.60;;;;;;6165212;28;22020;-76
2021/03/30 00:07:34;;;;;;;3.30;1.87;;;12.40;70.90;;;;;;6182777;28;20402;-77
2021/03/30 00:10:44;;;;;;;5.67;2.13;;;12.40;71.80;;;;;;6182236;28;20293;-77
2021/03/30 00:13:47;;;;;;;6.00;2.53;;;12.30;72.70;;;;;;6148854;28;20317;-76
2021/03/30 00:16:49;;;;;;;4.63;2.40;;;12.30;72.00;;;;;;6182969;28;20285;-76
2021/03/30 00:19:51;;;;;;;4.87;2.53;;;12.20;73.40;;;;;;6182582;28;20225;-76
2021/03/30 00:22:53;;;;;;;3.97;2.50;;;12.20;74.80;;;;;;6182098;28;20229;-76
2021/03/30 00:25:55;;;;;;;3.63;1.70;;;12.20;74.80;;;;;;6181786;28;20231;-77
2021/03/30 00:28:56;;;;;;;2.53;2.03;;;12.10;75.40;;;;;;6166650;28;20241;-77
2021/03/30 00:31:58;;;;;;;3.43;2.20;;;12.10;76.70;;;;;;6182307;28;20242;-76
2021/03/30 00:35:00;;;;;;;4.07;2.07;;;12.00;76.60;;;;;;6179982;28;20228;-77
2021/03/30 00:38:02;;;;;;;4.10;2.50;;;12.00;77.60;;;;;;6182447;28;20221;-76
2021/03/30 00:41:03;;;;;;;3.67;1.97;;;12.00;79.00;;;;;;6181919;28;20237;-77
2021/03/30 00:44:12;;;;;;;3.53;1.90;;;12.00;77.80;;;;;;6181561;28;20232;-77
2021/03/30 00:47:21;;;;;;;3.23;2.00;;;12.10;78.10;;;;;;6166108;28;20726;-76
2021/03/30 00:50:28;;;;;;;5.10;2.60;;;12.10;78.70;;;;;;6182170;28;20586;-76
2021/03/30 00:53:33;;;;;;;3.00;1.97;;;12.00;79.40;;;;;;6171170;28;20244;-77
2021/03/30 00:57:02;;;;;;;1.87;1.60;;;12.00;79.70;;;;;;6076982;29;20243;-76
2021/03/30 01:00:11;;;;;;;4.83;2.30;;;12.00;80.30;;;;;;6066119;29;20225;-76
2021/03/30 01:03:13;;;;;;;2.97;2.30;;;12.00;81.10;;;;;;6066769;29;20266;-76
2021/03/30 01:06:15;;;;;;;3.30;2.03;;;11.90;82.50;;;;;;6065075;29;20631;-77
2021/03/30 01:09:41;;;;;;;6.53;2.23;;;11.90;82.20;;;;;;6066737;29;20244;-77
2021/03/30 01:13:02;;;;;;;6.17;2.03;;;11.90;83.30;;;;;;6066172;29;20255;-77
2021/03/30 01:16:15;;;;;;;2.57;2.13;;;11.90;82.90;;;;;;6050095;29;20232;-76
2021/03/30 01:19:44;;;;;;;3.80;2.07;;;11.80;84.30;;;;;;6065098;29;20334;-77
2021/03/30 01:23:04;;;;;;;3.27;2.33;;;11.80;84.20;;;;;;6066532;29;20236;-77
2021/03/30 01:26:25;;;;;;;5.17;2.40;;;11.80;83.80;;;;;;6050186;29;20236;-76
2021/03/30 01:29:48;;;;;;;3.43;2.23;;;11.80;82.50;;;;;;6065652;29;20233;-76
2021/03/30 01:33:10;;;;;;;3.40;2.53;;;11.80;80.90;;;;;;6090687;28;20271;-76
2021/03/30 01:36:13;;;;;;;4.53;2.67;;;11.80;81.60;;;;;;6162036;28;20277;-76
2021/03/30 01:39:17;;;;;;;3.47;2.60;;;11.90;79.10;;;;;;6162616;28;20670;-77
2021/03/30 01:42:22;;;;;;;5.23;2.70;;;11.90;79.20;;;;;;6145011;28;20605;-76
2021/03/30 01:45:25;;;;;;;4.23;2.70;;;12.00;76.00;;;;;;6150160;28;20573;-77
2021/03/30 01:48:29;;;;;;;7.70;2.97;;;12.20;73.60;;;;;;6168435;28;20221;-77
2021/03/30 01:51:31;;;;;;;5.17;3.03;;;12.30;71.70;;;;;;6168336;28;20334;-77
2021/03/30 01:54:34;;;;;;;4.67;3.23;;;12.40;68.20;;;;;;6184367;28;20579;-77
2021/03/30 01:57:39;;;;;;;7.83;2.70;;;12.60;64.80;;;;;;6167863;28;20228;-76
2021/03/30 02:00:40;;;;;;;6.60;2.40;;;12.80;69.50;;;;;;6186391;28;20244;-77
2021/03/30 02:03:44;;;;;;;3.63;2.67;;;12.90;68.90;;;;;;6168596;28;20377;-77
2021/03/30 02:06:47;;;;;;;4.90;2.83;;;12.80;68.60;;;;;;6167871;28;20371;-76
2021/03/30 02:09:53;;;;;;;4.83;2.93;;;12.90;67.90;;;;;;6186075;28;20410;-77
2021/03/30 02:12:58;;;;;;;5.07;3.17;;;12.90;65.30;;;;;;6185251;28;20246;-77
2021/03/30 02:16:11;;;;;;;5.53;3.43;;;13.00;62.10;;;;;;6186178;28;20247;-77
2021/03/30 02:19:18;;;;;;;4.00;2.80;;;13.20;60.90;;;;;;6184779;28;20228;-77
2021/03/30 02:22:34;;;;;;;4.27;2.87;;;13.30;61.70;;;;;;6185664;28;20225;-77
2021/03/30 02:25:39;;;;;;;5.27;3.40;;;13.30;63.10;;;;;;6168293;28;20598;-76
2021/03/30 02:31:44;;;;;;;4.73;3.57;;;13.30;59.90;;;;;;6185740;28;20235;-76
2021/03/30 02:34:48;;;;;;;5.00;3.70;;;13.40;58.50;;;;;;6166924;28;20649;-77
2021/03/30 02:37:51;;;;;;;6.53;3.90;;;13.70;57.30;;;;;;6166937;28;20231;-77
2021/03/30 02:40:53;;;;;;;6.80;3.57;;;13.90;57.30;;;;;;6184039;28;20232;-76
2021/03/30 02:43:59;;;;;;;7.43;3.60;;;13.90;57.00;;;;;;6183559;28;20235;-76
2021/03/30 02:47:00;;;;;;;5.07;3.63;;;14.00;57.40;;;;;;6151430;28;20315;-76
2021/03/30 02:50:05;;;;;;;5.50;3.10;;;14.00;57.00;;;;;;6166569;28;20232;-76
2021/03/30 02:53:08;;;;;;;5.03;2.70;;;13.90;58.10;;;;;;6166187;28;20235;-76
2021/03/30 02:56:10;;;;;;;6.67;2.87;;;13.70;59.70;;;;;;6166540;28;20397;-76
2021/03/30 02:59:13;;;;;;;4.43;3.00;;;13.60;60.30;;;;;;6179375;28;20229;-76
2021/03/30 03:02:15;;;;;;;4.90;3.40;;;13.50;59.60;;;;;;6184738;28;20240;-76
2021/03/30 03:05:16;;;;;;;5.37;2.77;;;13.40;60.60;;;;;;6150987;28;20712;-76
2021/03/30 03:08:20;;;;;;;9.60;2.43;;;13.30;59.60;;;;;;6184477;28;20227;-76
2021/03/30 03:11:24;;;;;;;5.37;2.83;;;13.30;62.60;;;;;;6183284;28;20727;-76
2021/03/30 03:14:27;;;;;;;6.13;3.60;;;13.10;60.70;;;;;;6150929;28;20233;-76
2021/03/30 03:17:30;;;;;;;4.20;2.40;;;13.10;58.90;;;;;;6182965;28;20228;-76
2021/03/30 03:20:32;;;;;;;3.50;2.40;;;13.20;60.80;;;;;;6183453;28;20243;-76
2021/03/30 03:23:37;;;;;;;3.93;2.30;;;13.10;61.90;;;;;;6183142;28;20606;-76
2021/03/30 03:26:39;;;;;;;4.83;2.33;;;12.90;63.10;;;;;;6165451;28;20740;-76
2021/03/30 03:29:42;;;;;;;3.13;1.90;;;12.70;63.40;;;;;;6184169;28;20240;-76
2021/03/30 03:32:44;;;;;;;2.70;2.10;;;12.50;67.00;;;;;;6182680;28;20234;-76
2021/03/30 03:36:08;;;;;;;6.83;2.30;;;12.30;68.60;;;;;;6165934;28;20235;-76
2021/03/30 03:39:11;;;;;;;4.33;2.40;;;12.10;71.50;;;;;;6182715;28;20308;-76
2021/03/30 03:42:13;;;;;;;4.13;2.20;;;11.90;73.80;;;;;;6165255;28;20222;-76
2021/03/30 03:45:15;;;;;;;5.40;2.57;;;11.70;74.70;;;;;;6182045;28;20686;-76
2021/03/30 03:48:17;;;;;;;4.77;2.37;;;11.60;75.90;;;;;;6181601;28;20216;-76
2021/03/30 03:51:19;;;;;;;5.40;2.20;;;11.40;78.10;;;;;;6183580;28;20247;-76
2021/03/30 03:54:22;;;;;;;3.57;1.87;;;11.30;81.20;;;;;;6182848;28;20240;-76
2021/03/30 03:57:28;;;;;;;4.07;2.10;;;11.10;82.50;;;;;;6187437;28;20236;-76
2021/03/30 04:00:31;;;;;;;4.13;2.23;;;11.00;84.50;;;;;;6165962;28;20299;-76
2021/03/30 04:03:42;;;;;;;3.10;2.27;;;10.90;85.80;;;;;;6182866;28;20788;-76
2021/03/30 04:06:49;;;;;;;2.93;1.77;;;10.70;87.30;;;;;;6182311;28;20234;-76
2021/03/30 04:09:52;;;;;;;4.00;1.70;;;10.50;89.50;;;;;;6183540;28;20286;-76
2021/03/30 04:12:57;;;;;;;3.13;1.93;;;10.40;90.00;;;;;;6183451;28;20233;-76
2021/03/30 04:16:03;;;;;;;4.33;2.40;;;10.30;90.40;;;;;;6164872;28;20232;-76
2021/03/30 04:19:10;;;;;;;2.40;1.90;;;10.20;91.20;;;;;;6182012;28;20319;-76
2021/03/30 04:22:14;;;;;;;4.00;2.03;;;10.10;91.30;;;;;;6165141;28;20232;-76
2021/03/30 04:25:16;;;;;;;3.97;2.57;;;10.00;91.90;;;;;;6163701;28;20251;-76
2021/03/30 04:28:18;;;;;;;5.47;2.53;;;9.90;92.70;;;;;;6182473;28;20367;-76
2021/03/30 04:31:21;;;;;;;3.27;2.00;;;9.70;94.40;;;;;;6181362;28;20607;-76
2021/03/30 04:34:23;;;;;;;5.20;2.37;;;9.50;94.40;;;;;;6182621;28;20727;-76
2021/03/30 04:37:25;;;;;;;5.80;2.50;;;9.40;95.10;;;;;;6181394;28;20235;-76
2021/03/30 04:40:27;;;;;;;7.63;2.90;;;9.30;95.20;;;;;;6163489;28;20235;-76
2021/03/30 04:43:29;;;;;;;7.27;2.47;;;9.20;95.90;;;;;;6181617;28;20237;-76
2021/03/30 04:46:31;;;;;;;9.03;2.67;;;9.10;96.70;;;;;;6164440;28;20235;-75
2021/03/30 04:49:33;;;;;;;3.07;2.10;;;9.00;96.90;;;;;;6164228;28;20606;-76
2021/03/30 04:52:37;;;;;;;7.53;3.03;;;8.90;97.40;;;;;;6182720;28;20271;-75
2021/03/30 04:55:39;;;;;;;3.87;2.37;;;8.90;98.20;;;;;;6164610;28;20734;-76
2021/03/30 04:58:41;;;;;;;8.43;2.43;;;8.90;99.20;;;;;;6164411;28;20221;-76
2021/03/30 05:01:42;;;;;;;4.50;2.57;;;8.80;99.50;;;;;;6164944;28;20229;-75
2021/03/30 05:04:44;;;;;;;5.07;2.43;;;8.80;99.90;;;;;;6164452;28;20642;-76
2021/03/30 05:07:46;;;;;;;4.60;2.50;;;8.70;99.90;;;;;;6164303;28;20293;-75
2021/03/30 05:10:51;;;;;;;3.17;2.07;;;8.80;99.90;;;;;;6163688;28;20846;-75
2021/03/30 05:13:53;;;;;;;3.57;2.43;;;8.70;99.90;;;;;;6164387;28;20320;-76
2021/03/30 05:16:55;;;;;;;8.20;2.23;;;8.70;99.90;;;;;;6181298;28;20292;-75
2021/03/30 05:19:56;;;;;;;6.03;2.20;;;8.70;99.90;;;;;;6164680;28;20234;-75
2021/03/30 05:22:58;;;;;;;4.33;3.17;;;8.70;99.90;;;;;;6167806;28;20333;-75
2021/03/30 05:26:00;;;;;;;3.67;2.70;;;8.70;99.90;;;;;;6163402;28;20239;-76
2021/03/30 05:29:03;;;;;;;6.60;2.50;;;8.70;99.90;;;;;;6185892;28;20235;-75
2021/03/30 05:32:05;;;;;;;3.60;2.40;;;8.70;99.90;;;;;;6168211;28;20229;-75
2021/03/30 05:35:10;;;;;;;5.50;2.20;;;8.80;99.90;;;;;;6185159;28;20775;-75
2021/03/30 05:38:17;;;;;;;4.27;2.57;;;8.90;99.90;;;;;;6167620;28;20246;-75
2021/03/30 05:41:19;;;;;;;6.77;2.30;;;9.00;99.90;;;;;;6186236;28;20233;-75
2021/03/30 05:44:21;;;;;;;4.07;2.50;;;9.10;99.90;;;;;;6186623;28;20220;-75
2021/03/30 05:47:27;;;;;;;8.80;3.43;;;9.20;99.90;;;;;;6185600;28;20223;-76
2021/03/30 05:50:34;;;;;;;6.57;3.20;;;9.30;99.90;;;;;;6168217;28;20257;-75
2021/03/30 05:53:37;;;;;;;7.60;2.63;;;9.30;99.90;;;;;;6182609;28;20233;-75
2021/03/30 05:56:40;;;;;;;11.30;3.10;;;9.40;99.90;;;;;;6187589;28;20781;-76
2021/03/30 05:59:45;;;;;;;3.20;2.50;;;9.50;99.90;;;;;;6178105;28;20239;-76
2021/03/30 06:02:50;;;;;;;5.33;2.50;;;9.60;99.90;;;;;;6186026;28;20249;-76
2021/03/30 06:05:58;;;;;;;9.10;2.70;;;9.70;99.90;;;;;;6185225;28;20722;-76
2021/03/30 06:09:03;;;;;;;8.70;2.90;;;9.90;99.40;;;;;;6167958;28;20276;-75
2021/03/30 06:12:05;;;;;;;6.63;2.93;;;10.10;98.20;;;;;;6168252;28;20245;-76
2021/03/30 06:15:09;;;;;;;6.47;2.10;;;10.30;96.70;;;;;;6185149;28;20227;-76
2021/03/30 06:18:20;;;;;;;7.57;2.83;;;10.40;97.80;;;;;;6184235;28;20727;-76
2021/03/30 06:21:23;;;;;;;5.27;2.57;;;10.60;95.50;;;;;;6184437;28;20298;-76
2021/03/30 06:24:27;;;;;;;6.40;2.70;;;10.60;95.10;;;;;;6183073;28;20700;-76
2021/03/30 06:27:29;;;;;;;5.43;3.33;;;10.70;94.80;;;;;;6167070;28;20217;-76
2021/03/30 06:30:31;;;;;;;6.07;3.13;;;11.00;88.40;;;;;;6184427;28;20242;-76
2021/03/30 06:33:49;;;;;;;4.37;2.47;;;11.40;89.00;;;;;;6167004;28;20229;-76
2021/03/30 06:36:51;;;;;;;5.40;3.30;;;11.80;80.20;;;;;;6166179;28;20233;-76
2021/03/30 06:39:55;;;;;;;6.00;3.17;;;12.20;74.90;;;;;;6167095;28;20324;-76
2021/03/30 06:43:13;;;;;;;5.77;3.33;;;12.50;72.60;;;;;;6184742;28;20263;-76
2021/03/30 06:46:15;;;;;;;10.70;3.23;;;12.80;68.70;;;;;;6166284;28;20741;-76
2021/03/30 06:49:19;;;;;;;3.70;2.70;;;13.10;66.40;;;;;;6182536;28;20307;-76
2021/03/30 06:52:25;;;;;;;6.47;3.10;;;13.30;64.70;;;;;;6167435;28;20372;-76
2021/03/30 06:55:29;;;;;;;4.30;3.13;;;13.40;63.70;;;;;;6184101;28;20252;-76
2021/03/30 06:58:55;;;;;;;8.20;3.10;;;13.50;62.30;;;;;;6166162;28;20301;-76
2021/03/30 07:01:57;;;;;;;5.13;2.90;;;13.60;61.10;;;;;;6184568;28;20233;-76
2021/03/30 07:04:59;;;;;;;6.40;3.00;;;13.70;60.90;;;;;;6184232;28;20234;-76
2021/03/30 07:08:03;;;;;;;6.67;3.50;;;13.80;59.90;;;;;;6184097;28;20236;-76
2021/03/30 07:11:07;;;;;;;8.10;3.07;;;13.90;59.40;;;;;;6166823;28;20228;-76
2021/03/30 07:14:08;;;;;;;5.73;2.97;;;14.10;59.00;;;;;;6183799;28;20242;-76
2021/03/30 07:17:12;;;;;;;7.97;3.50;;;14.10;58.30;;;;;;6165759;28;20259;-76
2021/03/30 07:20:17;;;;;;;4.87;3.00;;;14.20;57.80;;;;;;6150118;28;20234;-76
2021/03/30 07:23:32;;;;;;;6.13;2.80;;;14.30;57.80;;;;;;6184499;28;20290;-76
2021/03/30 07:26:46;;;;;;;3.77;2.50;;;14.30;57.60;;;;;;6166023;28;20233;-76
2021/03/30 07:29:49;;;;;;;5.83;3.53;;;14.50;57.60;;;;;;6182677;28;20228;-76
2021/03/30 07:33:01;;;;;;;6.43;3.30;;;14.60;56.60;;;;;;6183363;28;20233;-76
2021/03/30 07:36:04;;;;;;;5.30;3.03;;;14.80;56.10;;;;;;6182163;28;20271;-76
2021/03/30 07:39:07;;;;;;;6.23;2.93;;;15.00;55.90;;;;;;6186467;28;20299;-76
2021/03/30 07:42:11;;;;;;;8.10;3.40;;;15.20;55.10;;;;;;6166104;28;20261;-76
2021/03/30 07:45:14;;;;;;;10.60;3.83;;;15.40;54.40;;;;;;6165431;28;20584;-76
2021/03/30 07:48:18;;;;;;;4.40;2.87;;;15.60;54.10;;;;;;6166277;28;20212;-76
2021/03/30 07:51:24;;;;;;;8.43;3.50;;;15.80;53.80;;;;;;6183069;28;20233;-76
2021/03/30 07:54:26;;;;;;;5.43;2.80;;;16.00;53.00;;;;;;6165704;28;20605;-76
2021/03/30 07:58:06;;;;;;;6.93;3.17;;;16.20;52.50;;;;;;6183161;28;20650;-76
2021/03/30 08:01:10;;;;;;;5.23;3.40;;;16.40;52.50;;;;;;6157635;28;20234;-77
2021/03/30 08:04:25;;;;;;;8.43;3.60;;;16.60;51.90;;;;;;6141369;28;20741;-76
2021/03/30 08:07:53;;;;;;;4.10;2.90;;;16.80;51.70;;;;;;6140505;28;20245;-76
2021/03/30 08:10:57;;;;;;;4.70;3.37;;;17.10;51.20;;;;;;6140453;28;20240;-77
2021/03/30 08:13:58;;;;;;;5.90;3.03;;;17.40;50.80;;;;;;6140444;28;20288;-77
2021/03/30 08:17:01;;;;;;;4.43;2.97;;;17.60;50.00;;;;;;6176867;28;20232;-77
2021/03/30 08:20:06;;;;;;;5.03;3.17;;;17.90;49.70;;;;;;6165788;28;20231;-77
2021/03/30 08:23:12;;;;;;;6.90;2.93;;;18.10;48.30;;;;;;6182248;28;20826;-76
2021/03/30 08:26:18;;;;;;;7.20;2.80;;;18.20;48.30;;;;;;6181596;28;20710;-77
2021/03/30 08:29:36;;;;;;;5.63;2.90;;;18.40;48.70;;;;;;6165806;28;20311;-77
2021/03/30 08:32:46;;;;;;;10.33;3.83;;;18.70;48.60;;;;;;6166738;28;20233;-77
2021/03/30 08:35:48;;;;;;;7.83;3.20;;;18.90;48.00;;;;;;6150205;28;20308;-77
2021/03/30 08:38:56;;;;;;;5.63;3.00;;;19.20;47.60;;;;;;6182758;28;20231;-77
2021/03/30 08:42:05;;;;;;;4.47;3.03;;;19.30;47.20;;;;;;6181637;28;20234;-77
2021/03/30 08:45:09;;;;;;;4.70;3.00;;;19.50;47.20;;;;;;6180344;28;20706;-77
2021/03/30 08:48:11;;;;;;;8.20;3.47;;;19.70;46.60;;;;;;6182627;28;20208;-77
2021/03/30 08:51:15;;;;;;;5.70;3.23;;;19.90;46.30;;;;;;6182232;28;20315;-77
2021/03/30 08:54:19;;;;;;;5.33;3.53;;;20.00;45.40;;;;;;6164426;28;20478;-77
2021/03/30 08:57:21;;;;;;;9.27;4.00;;;20.10;45.50;;;;;;6164660;28;20292;-77
2021/03/30 09:00:23;;;;;;;5.87;3.20;;;20.20;44.80;;;;;;6164255;28;20225;-77
2021/03/30 09:03:27;;;;;;;7.93;3.43;;;20.40;45.30;;;;;;6182858;28;20310;-77
2021/03/30 09:06:34;;;;;;;7.30;4.10;;;20.40;44.00;;;;;;6182633;28;20233;-77
2021/03/30 09:09:38;;;;;;;8.57;3.40;;;20.40;44.50;;;;;;6165535;28;20241;-77
2021/03/30 09:12:41;;;;;;;6.10;4.20;;;20.70;44.00;;;;;;6166418;28;20245;-77
2021/03/30 09:15:44;;;;;;;6.70;4.00;;;20.90;43.90;;;;;;6169545;28;20225;-77
2021/03/30 09:18:45;;;;;;;5.13;3.13;;;21.00;43.50;;;;;;6169856;28;20699;-77
2021/03/30 09:22:03;;;;;;;6.33;3.70;;;21.20;43.80;;;;;;6187095;28;20233;-77
2021/03/30 09:28:21;;;;;;;7.57;4.77;;;21.70;42.40;;;;;;6185915;28;20770;-77
2021/03/30 09:31:23;;;;;;;8.97;4.60;;;21.70;41.30;;;;;;6185505;28;20244;-77
2021/03/30 09:34:25;;;;;;;6.70;4.07;;;21.50;41.10;;;;;;6185873;28;20749;-77
2021/03/30 09:37:33;;;;;;;5.90;4.27;;;21.50;41.60;;;;;;6185158;28;20727;-77
2021/03/30 09:40:42;;;;;;;7.87;4.33;;;21.50;40.90;;;;;;6168057;28;20240;-77
2021/03/30 09:43:44;;;;;;;7.47;5.40;;;21.60;40.50;;;;;;6167978;28;20244;-77
2021/03/30 09:46:48;;;;;;;7.60;4.17;;;21.40;40.50;;;;;;6185930;28;20299;-77
2021/03/30 09:49:50;;;;;;;7.23;3.70;;;21.20;41.90;;;;;;6168830;28;20691;-77
2021/03/30 09:52:53;;;;;;;9.27;4.57;;;21.40;42.10;;;;;;6167774;28;20221;-77
2021/03/30 09:55:54;;;;;;;13.90;4.60;;;21.70;40.80;;;;;;6184881;28;20730;-77
2021/03/30 09:58:58;;;;;;;6.87;4.53;;;21.90;41.10;;;;;;6183945;28;20729;-77
2021/03/30 10:02:01;;;;;;;8.47;4.70;;;22.20;40.40;;;;;;6168723;28;20650;-77
2021/03/30 10:05:06;;;;;;;8.10;4.63;;;22.30;40.40;;;;;;6169303;28;20263;-77
2021/03/30 10:08:29;;;;;;;6.40;4.17;;;22.50;39.30;;;;;;6186700;28;20328;-77
2021/03/30 10:11:32;;;;;;;5.10;4.10;;;22.40;40.00;;;;;;6169281;28;20722;-77
2021/03/30 10:14:34;;;;;;;6.17;4.17;;;22.60;40.50;;;;;;6169459;28;20323;-77
2021/03/30 10:17:36;;;;;;;7.67;3.83;;;22.80;39.80;;;;;;6190407;28;20240;-77
2021/03/30 10:20:45;;;;;;;6.80;3.30;;;23.20;40.20;;;;;;6185367;28;20371;-77
2021/03/30 10:23:49;;;;;;;5.33;4.10;;;23.50;38.60;;;;;;6184713;28;20241;-78
2021/03/30 10:27:17;;;;;;;8.13;4.90;;;23.60;39.10;;;;;;6184642;28;20244;-78
2021/03/30 10:30:29;;;;;;;6.23;4.10;;;23.50;37.50;;;;;;6185376;28;20229;-77
2021/03/30 10:33:38;;;;;;;5.00;4.03;;;23.50;38.40;;;;;;6167737;28;20359;-78
2021/03/30 10:36:40;;;;;;;5.40;3.67;;;23.70;39.30;;;;;;6184985;28;20224;-78
2021/03/30 10:39:44;;;;;;;5.20;3.73;;;24.10;38.10;;;;;;6184831;28;20295;-78
2021/03/30 10:42:46;;;;;;;5.30;4.00;;;24.20;37.10;;;;;;6167551;28;20722;-78
2021/03/30 10:45:49;;;;;;;4.23;3.70;;;24.20;37.80;;;;;;6185020;28;20221;-78
2021/03/30 10:49:05;;;;;;;8.90;3.87;;;24.10;36.30;;;;;;6167449;28;20312;-78
2021/03/30 10:52:19;;;;;;;5.00;3.70;;;24.20;36.80;;;;;;6183932;28;20241;-78
2021/03/30 10:55:21;;;;;;;5.50;4.07;;;24.20;37.50;;;;;;6167499;28;20245;-78
2021/03/30 10:58:23;;;;;;;7.77;4.07;;;24.40;36.90;;;;;;6166436;28;20323;-77
2021/03/30 11:01:25;;;;;;;5.63;3.83;;;24.50;36.50;;;;;;6187090;28;20232;-78
2021/03/30 11:04:27;;;;;;;6.77;4.10;;;24.70;37.10;;;;;;6167027;28;20703;-78
2021/03/30 11:07:28;;;;;;;4.10;3.33;;;25.10;36.30;;;;;;6169160;28;20229;-78
2021/03/30 11:10:33;;;;;;;5.15;2.90;;;25.40;35.90;;;;;;6169435;28;20237;-78
2021/03/30 11:13:36;;;;;;;4.45;2.90;;;25.60;35.30;;;;;;6169266;28;20229;-78
2021/03/30 11:16:38;;;;;;;4.40;2.92;;;25.60;35.10;;;;;;6168066;28;20308;-78
2021/03/30 11:19:40;;;;;;;7.57;3.90;;;25.70;34.90;;;;;;6184370;28;20383;-78
2021/03/30 11:22:43;;;;;;;9.93;4.30;;;25.60;34.60;;;;;;6184281;28;20284;-78
2021/03/30 11:25:45;;;;;;;5.95;4.25;;;25.50;34.60;;;;;;6166813;28;20324;-78
2021/03/30 11:28:47;;;;;;;7.72;4.25;;;25.50;34.30;;;;;;6167218;28;20363;-78
2021/03/30 11:38:12;;;;;;;5.15;3.80;;;25.20;35.90;;;;;;6182973;28;20229;-78
2021/03/30 11:41:13;;;;;;;8.77;4.82;;;25.40;35.50;;;;;;6159383;28;20320;-77
2021/03/30 11:44:15;;;;;;;7.35;4.15;;;25.70;34.60;;;;;;6160427;28;20229;-78
2021/03/30 11:47:18;;;;;;;9.30;4.68;;;25.90;34.10;;;;;;6160772;28;20590;-78
2021/03/30 11:50:19;;;;;;;6.93;4.93;;;26.20;33.50;;;;;;6159984;28;20249;-78
2021/03/30 11:53:21;;;;;;;7.82;4.82;;;26.00;34.00;;;;;;6162158;28;20229;-78
2021/03/30 11:56:23;;;;;;;8.10;5.50;;;26.10;33.80;;;;;;6159844;28;20236;-78
2021/03/30 11:59:27;;;;;;;4.85;4.07;;;26.00;34.40;;;;;;6162445;28;20323;-78
2021/03/30 12:02:28;;;;;;;11.18;5.78;;;25.90;35.10;;;;;;6167481;28;20252;-78
2021/03/30 12:05:33;;;;;;;7.82;5.82;;;26.00;34.40;;;;;;6165677;28;20241;-78
2021/03/30 12:08:36;;;;;;;8.82;5.03;;;25.90;33.90;;;;;;6166224;28;20253;-78
2021/03/30 12:11:38;;;;;;;7.25;4.82;;;25.60;34.20;;;;;;6149249;28;20237;-78
2021/03/30 12:14:40;;;;;;;7.50;4.85;;;25.50;33.90;;;;;;6164898;28;20229;-78
2021/03/30 12:17:42;;;;;;;8.85;5.07;;;25.60;34.80;;;;;;6167368;28;20301;-78
2021/03/30 12:20:44;;;;;;;11.55;5.20;;;26.00;33.70;;;;;;6166839;28;20239;-77
2021/03/30 12:23:46;;;;;;;6.40;5.10;;;26.10;33.90;;;;;;6161290;28;20237;-78
2021/03/30 12:26:48;;;;;;;6.35;4.57;;;25.90;33.60;;;;;;6159800;28;20237;-78
2021/03/30 12:29:50;;;;;;;6.93;5.35;;;26.10;35.30;;;;;;6160440;28;20232;-78
2021/03/30 12:32:52;;;;;;;7.72;4.78;;;26.50;34.20;;;;;;6162018;28;20230;-78
2021/03/30 12:35:53;;;;;;;9.95;4.82;;;26.60;34.10;;;;;;6159753;28;20711;-78
2021/03/30 12:38:56;;;;;;;9.57;6.07;;;27.00;34.20;;;;;;6159242;28;20677;-78
2021/03/30 12:41:58;;;;;;;5.65;4.38;;;27.20;33.50;;;;;;6185782;28;20694;-78
2021/03/30 12:45:00;;;;;;;5.57;3.83;;;27.20;33.80;;;;;;6189891;28;20232;-78
2021/03/30 12:48:06;;;;;;;9.52;4.80;;;27.40;33.40;;;;;;6170221;28;20340;-78
2021/03/30 12:51:08;;;;;;;8.48;4.53;;;27.40;31.70;;;;;;6190261;28;20247;-78
2021/03/30 12:54:10;;;;;;;8.15;4.60;;;27.50;32.40;;;;;;6190550;28;20674;-78
2021/03/30 12:57:12;;;;;;;5.72;4.15;;;27.30;32.10;;;;;;6171834;28;20272;-77
2021/03/30 13:00:15;;;;;;;9.27;4.50;;;27.20;32.60;;;;;;6171890;28;20279;-78
2021/03/30 13:03:17;;;;;;;6.38;4.07;;;27.50;33.10;;;;;;6189232;28;20209;-78
2021/03/30 13:06:19;;;;;;;6.78;3.97;;;27.80;32.30;;;;;;6172113;28;20725;-78
2021/03/30 13:09:21;;;;;;;5.45;4.10;;;27.80;32.40;;;;;;6189644;28;20589;-78
2021/03/30 13:12:23;;;;;;;7.07;5.18;;;28.10;31.10;;;;;;6170833;28;20588;-76
2021/03/30 13:15:41;;;;;;;6.45;3.72;;;27.90;31.60;;;;;;6157977;28;20380;-76
2021/03/30 13:18:43;;;;;;;5.60;3.75;;;28.00;32.40;;;;;;6170232;28;20229;-76
2021/03/30 13:22:05;;;;;;;6.43;3.83;;;28.30;31.60;;;;;;6187786;28;20252;-76
2021/03/30 13:25:08;;;;;;;4.57;3.53;;;28.30;31.50;;;;;;6185317;28;20237;-76
2021/03/30 13:28:12;;;;;;;6.47;4.00;;;28.30;31.80;;;;;;6169563;28;20233;-76
2021/03/30 13:31:13;;;;;;;4.63;3.70;;;28.70;31.10;;;;;;6185309;28;20245;-77
2021/03/30 13:34:15;;;;;;;6.82;3.90;;;29.20;31.30;;;;;;6185977;28;20724;-76
2021/03/30 13:37:23;;;;;;;8.02;3.75;;;29.70;30.60;;;;;;6169436;28;20296;-76
2021/03/30 13:40:26;;;;;;;5.53;3.75;;;30.10;30.70;;;;;;6168102;28;20368;-77
2021/03/30 13:43:27;;;;;;;6.22;4.47;;;30.40;29.70;;;;;;6167658;28;20722;-76
2021/03/30 13:46:29;;;;;;;5.55;4.18;;;30.80;29.40;;;;;;6183834;28;20240;-76
2021/03/30 13:49:34;;;;;;;6.90;3.42;;;30.60;29.40;;;;;;6168321;28;20271;-76
2021/03/30 13:52:36;;;;;;;4.32;3.90;;;30.20;29.40;;;;;;6168140;28;20241;-76
2021/03/30 13:55:39;;;;;;;6.13;4.38;;;30.30;29.60;;;;;;6171204;28;20255;-76
2021/03/30 13:58:41;;;;;;;7.97;4.22;;;30.60;29.00;;;;;;6184497;28;20249;-76
2021/03/30 14:01:43;;;;;;;5.18;4.53;;;30.80;29.10;;;;;;6186084;28;20240;-76
2021/03/30 14:04:44;;;;;;;6.00;4.18;;;30.90;29.20;;;;;;6186853;28;20323;-76
2021/03/30 14:07:46;;;;;;;4.75;3.90;;;30.90;29.30;;;;;;6168346;28;20688;-76
2021/03/30 14:10:48;;;;;;;7.40;3.65;;;30.60;29.20;;;;;;6184467;28;20279;-76
2021/03/30 14:13:56;;;;;;;6.07;3.85;;;30.10;29.70;;;;;;6168187;28;20718;-76
2021/03/30 14:17:13;;;;;;;7.07;3.38;;;29.50;29.40;;;;;;6185388;28;20297;-76
2021/03/30 14:20:16;;;;;;;6.75;3.80;;;29.00;29.90;;;;;;6167198;28;20229;-76
2021/03/30 14:23:51;;;;;;;5.38;3.83;;;28.30;30.30;;;;;;6167650;28;20288;-76
2021/03/30 14:26:53;;;;;;;7.45;3.00;;;27.50;30.20;;;;;;6170932;28;20241;-76
2021/03/30 14:30:17;;;;;;;4.35;2.95;;;26.80;31.20;;;;;;6184036;28;20299;-76
2021/03/30 14:33:19;;;;;;;7.00;3.00;;;26.40;31.30;;;;;;6167465;28;20204;-76
2021/03/30 14:36:21;;;;;;;4.40;3.30;;;26.10;31.90;;;;;;6167183;28;20201;-76
2021/03/30 14:39:23;;;;;;;4.95;3.50;;;25.90;31.60;;;;;;6150321;28;20368;-76
2021/03/30 14:42:34;;;;;;;5.82;3.72;;;25.90;31.70;;;;;;6184657;28;20229;-76
2021/03/30 14:59:51;;;;;;;8.15;3.67;;;25.40;32.80;;;;;;6185352;28;20351;-75
2021/03/30 15:06:09;;;;;;;4.37;2.77;;;25.10;32.80;;;;;;6184495;28;20228;-75
2021/03/30 15:09:11;;;;;;;5.23;3.63;;;24.90;33.50;;;;;;6183677;28;20687;-75
2021/03/30 15:12:33;;;;;;;7.33;3.57;;;24.70;33.00;;;;;;6169396;28;20237;-76
2021/03/30 15:15:39;;;;;;;4.93;3.10;;;24.40;33.20;;;;;;6182483;28;20312;-76
2021/03/30 15:18:41;;;;;;;5.43;3.70;;;24.10;33.20;;;;;;6165932;28;20604;-75
2021/03/30 15:21:44;;;;;;;5.00;3.30;;;24.00;33.70;;;;;;6167315;28;20708;-75
2021/03/30 15:24:46;;;;;;;4.00;3.00;;;23.90;34.00;;;;;;6181875;28;20245;-75
2021/03/30 15:27:49;;;;;;;3.80;3.20;;;23.70;34.40;;;;;;6183112;28;20239;-75
2021/03/30 15:30:59;;;;;;;4.60;2.97;;;23.60;34.10;;;;;;6295333;27;20967;-68
2021/03/30 15:34:01;;;;;;;4.87;2.80;;;23.60;34.40;;;;;;6277858;28;20722;-68
2021/03/30 15:37:03;;;;;;;5.63;3.67;;;23.50;34.50;;;;;;6278455;28;20226;-68
2021/03/30 15:40:11;;;;;;;5.70;3.10;;;23.40;34.80;;;;;;6276144;28;20241;-68
2021/03/30 15:43:13;;;;;;;7.60;3.40;;;23.30;34.80;;;;;;6276601;28;20235;-68
2021/03/30 15:49:23;;;;;;;3.50;2.50;;;23.10;34.40;;;;;;6277286;28;20372;-68
2021/03/30 15:52:27;;;;;;;3.50;2.23;;;22.90;34.50;;;;;;6276406;28;20246;-68
2021/03/30 15:55:29;;;;;;;6.70;3.17;;;22.90;35.20;;;;;;6276259;28;20309;-68
2021/03/30 15:58:32;;;;;;;8.57;3.17;;;22.90;35.20;;;;;;6276959;28;20624;-68
2021/03/30 16:01:34;;;;;;;5.67;3.23;;;22.70;35.20;;;;;;6275334;28;20234;-68
2021/03/30 16:04:41;;;;;;;5.57;2.60;;;22.50;35.30;;;;;;6278218;28;20596;-68
2021/03/30 16:07:44;;;;;;;4.77;2.83;;;22.40;35.70;;;;;;6275520;28;20238;-68
2021/03/30 16:10:46;;;;;;;5.93;3.10;;;22.30;35.90;;;;;;6276116;28;20234;-68
2021/03/30 16:13:48;;;;;;;7.67;2.30;;;22.20;36.20;;;;;;6275057;28;20230;-68
2021/03/30 16:16:50;;;;;;;3.30;2.13;;;21.90;36.50;;;;;;6259360;28;20237;-68
2021/03/30 16:19:52;;;;;;;3.70;2.40;;;21.70;37.10;;;;;;6251762;28;20242;-68
2021/03/30 16:22:54;;;;;;;4.43;2.23;;;21.50;37.60;;;;;;6251068;28;20622;-68
2021/03/30 16:25:56;;;;;;;6.30;2.30;;;21.20;38.60;;;;;;6250903;28;20235;-68
2021/03/30 16:28:59;;;;;;;5.23;2.17;;;21.00;39.10;;;;;;6250305;28;20242;-68
2021/03/30 16:32:01;;;;;;;6.83;2.43;;;20.70;41.10;;;;;;6251570;28;20228;-68
2021/03/30 16:35:03;;;;;;;3.60;1.90;;;20.40;40.20;;;;;;6250915;28;20227;-68
2021/03/30 16:38:06;;;;;;;5.97;2.20;;;20.30;40.50;;;;;;6250306;28;20235;-68